createdAt,value
2023-05-16T00:00:07.417Z,10.78
2023-05-16T00:05:14.438Z,10.71
2023-05-16T00:10:16.168Z,10.70
2023-05-16T00:15:18.363Z,10.67
2023-05-16T00:20:23.573Z,10.68
2023-05-16T00:25:28.701Z,10.67
2023-05-16T00:30:30.509Z,10.65
2023-05-16T00:35:34.774Z,10.61
2023-05-16T00:40:36.742Z,10.52
2023-05-16T00:45:38.732Z,10.40
2023-05-16T00:50:40.798Z,10.35
2023-05-16T00:55:44.798Z,10.23
2023-05-16T01:00:48.767Z,10.18
2023-05-16T01:05:57.539Z,10.06
2023-05-16T01:11:30.782Z,10.05
2023-05-16T01:17:03.805Z,9.90
2023-05-16T01:22:16.464Z,9.55
2023-05-16T01:27:18.652Z,9.22
2023-05-16T01:32:21.239Z,9.00
2023-05-16T01:37:36.025Z,8.79
2023-05-16T01:42:44.334Z,8.64
2023-05-16T01:47:49.256Z,8.52
2023-05-16T01:52:57.916Z,8.53
2023-05-16T01:58:04.835Z,8.44
2023-05-16T02:03:08.293Z,8.28
2023-05-16T02:08:10.106Z,8.21
2023-05-16T02:13:11.751Z,8.10
2023-05-16T02:18:13.511Z,8.18
2023-05-16T02:23:17.985Z,8.16
2023-05-16T02:28:21.925Z,8.20
2023-05-16T02:33:27.709Z,8.20
2023-05-16T02:38:29.555Z,8.11
2023-05-16T02:43:31.277Z,7.98
2023-05-16T02:48:32.903Z,7.84
2023-05-16T02:53:36.995Z,7.69
2023-05-16T02:58:38.835Z,7.58
2023-05-16T03:03:41.217Z,7.53
2023-05-16T03:08:43.348Z,7.42
2023-05-16T03:13:45.020Z,7.37
2023-05-16T03:18:49.286Z,7.33
2023-05-16T03:23:50.997Z,7.35
2023-05-16T03:28:52.728Z,7.26
2023-05-16T03:33:56.710Z,7.17
2023-05-16T03:39:01.737Z,7.24
2023-05-16T03:44:06.028Z,7.70
2023-05-16T03:49:07.732Z,7.45
2023-05-16T03:54:09.461Z,7.33
2023-05-16T03:59:15.937Z,7.34
2023-05-16T04:04:19.923Z,7.31
2023-05-16T04:09:23.767Z,7.23
2023-05-16T04:14:25.497Z,7.20
2023-05-16T04:19:27.218Z,7.22
2023-05-16T04:24:31.154Z,7.32
2023-05-16T04:29:35.900Z,7.45
2023-05-16T04:34:40.599Z,7.96
2023-05-16T04:39:42.849Z,7.90
2023-05-16T04:44:44.811Z,7.74
2023-05-16T04:49:49.049Z,7.85
2023-05-16T04:54:53.658Z,8.05
2023-05-16T04:59:55.772Z,8.23
2023-05-16T05:04:59.706Z,8.74
2023-05-16T05:10:03.626Z,9.46
2023-05-16T05:15:06.510Z,10.04
2023-05-16T05:20:11.597Z,10.44
2023-05-16T05:25:18.496Z,10.66
2023-05-16T05:30:20.225Z,10.47
2023-05-16T05:35:23.960Z,10.14
2023-05-16T05:40:25.723Z,9.81
2023-05-16T05:45:31.912Z,9.88
2023-05-16T05:50:34.160Z,9.98
2023-05-16T05:55:41.781Z,10.28
2023-05-16T06:00:43.506Z,10.86
2023-05-16T06:05:45.211Z,11.44
2023-05-16T06:10:47.581Z,11.36
2023-05-16T06:15:54.741Z,11.34
2023-05-16T06:20:59.422Z,10.75
2023-05-16T06:26:06.610Z,9.86
2023-05-16T06:31:08.395Z,9.76
2023-05-16T06:36:12.665Z,10.03
2023-05-16T06:41:16.426Z,10.87
2023-05-16T06:46:23.098Z,11.05
2023-05-16T06:51:24.914Z,10.87
2023-05-16T06:56:28.932Z,10.85
2023-05-16T07:01:33.934Z,11.37
2023-05-16T07:06:40.245Z,11.82
2023-05-16T07:11:44.487Z,12.23
2023-05-16T07:16:46.292Z,12.40
2023-05-16T07:21:48.032Z,12.21
2023-05-16T07:26:50.014Z,12.13
2023-05-16T07:31:54.222Z,11.54
2023-05-16T07:36:59.042Z,11.33
2023-05-16T07:42:00.797Z,12.01
2023-05-16T07:47:07.463Z,12.28
2023-05-16T07:52:09.322Z,12.38
2023-05-16T07:57:13.371Z,13.12
2023-05-16T08:02:17.732Z,13.55
2023-05-16T08:07:19.550Z,13.02
2023-05-16T08:12:21.349Z,12.59
2023-05-16T08:17:23.141Z,13.02
2023-05-16T08:22:30.161Z,12.51
2023-05-16T08:27:34.383Z,12.41
2023-05-16T08:32:41.914Z,11.94
2023-05-16T08:37:46.040Z,12.81
2023-05-16T08:42:55.193Z,13.55
2023-05-16T08:48:01.074Z,12.70
2023-05-16T08:53:11.488Z,11.48
2023-05-16T08:58:15.746Z,10.99
2023-05-16T09:03:25.220Z,11.06
2023-05-16T09:08:27.428Z,12.03
2023-05-16T09:13:29.231Z,12.82
2023-05-16T09:18:33.769Z,11.93
2023-05-16T09:23:37.779Z,11.26
2023-05-16T09:28:39.936Z,11.33
2023-05-16T09:33:42.476Z,11.91
2023-05-16T09:38:46.361Z,12.20
2023-05-16T09:43:50.506Z,12.24
2023-05-16T09:48:52.309Z,12.45
2023-05-16T09:53:55.695Z,12.85
2023-05-16T09:59:03.317Z,12.76
2023-05-16T10:04:14.170Z,12.83
2023-05-16T10:09:18.683Z,13.24
2023-05-16T10:14:20.883Z,13.09
2023-05-16T10:19:25.957Z,14.19
2023-05-16T10:24:37.083Z,13.81
2023-05-16T10:29:54.173Z,13.92
2023-05-16T10:34:57.175Z,13.83
2023-05-16T10:40:02.693Z,13.80
2023-05-16T10:45:20.089Z,13.32
2023-05-16T10:50:42.981Z,14.20
2023-05-16T10:55:59.653Z,13.21
2023-05-16T11:01:23.879Z,11.94
2023-05-16T11:06:43.385Z,12.57
2023-05-16T11:12:05.320Z,13.41
2023-05-16T11:17:21.696Z,12.83
2023-05-16T11:22:30.066Z,12.64
2023-05-16T11:27:39.583Z,12.74
2023-05-16T11:32:45.758Z,13.89
2023-05-16T11:37:48.064Z,13.31
2023-05-16T11:42:50.042Z,14.33
2023-05-16T11:47:54.308Z,13.94
2023-05-16T11:52:57.603Z,14.01
2023-05-16T11:58:02.736Z,14.75
2023-05-16T12:03:08.246Z,17.22
2023-05-16T12:08:12.704Z,18.85
2023-05-16T12:13:18.269Z,18.72
2023-05-16T12:18:22.458Z,19.89
2023-05-16T12:23:26.967Z,18.97
2023-05-16T12:28:37.417Z,17.30
2023-05-16T12:33:42.070Z,19.07
2023-05-16T12:38:46.999Z,16.95
2023-05-16T12:43:49.675Z,19.85
2023-05-16T12:49:02.900Z,17.58
2023-05-16T12:54:12.097Z,18.35
2023-05-16T12:59:14.567Z,21.58
2023-05-16T13:04:20.342Z,21.12
2023-05-16T13:09:29.970Z,18.72
2023-05-16T13:14:34.101Z,17.98
2023-05-16T13:19:36.617Z,19.03
2023-05-16T13:24:42.874Z,21.07
2023-05-16T13:29:44.964Z,21.20
2023-05-16T13:34:48.902Z,23.41
2023-05-16T13:39:56.072Z,24.06
2023-05-16T13:44:57.893Z,22.30
2023-05-16T13:50:03.417Z,19.85
2023-05-16T13:55:05.697Z,18.05
2023-05-16T14:05:17.614Z,18.09
2023-05-16T14:10:23.853Z,23.19
2023-05-16T14:15:25.790Z,25.40
2023-05-16T14:20:31.173Z,22.07
2023-05-16T14:25:35.382Z,17.31
2023-05-16T14:30:39.492Z,17.60
2023-05-16T14:35:41.261Z,18.40
2023-05-16T14:40:43.018Z,17.60
2023-05-16T14:45:47.056Z,16.47
2023-05-16T14:50:49.109Z,18.72
2023-05-16T14:55:50.921Z,23.29
2023-05-16T15:00:52.741Z,22.10
2023-05-16T15:05:54.954Z,21.20
2023-05-16T15:11:00.075Z,19.85
2023-05-16T15:16:04.502Z,17.75
2023-05-16T15:21:09.299Z,17.62
2023-05-16T15:26:11.709Z,18.90
2023-05-16T15:31:13.606Z,17.44
2023-05-16T15:36:15.585Z,16.63
2023-05-16T15:41:37.269Z,20.16
2023-05-16T15:46:41.766Z,21.28
2023-05-16T15:51:43.564Z,19.41
2023-05-16T15:56:45.529Z,19.13
2023-05-16T16:01:52.261Z,19.71
2023-05-16T16:06:54.348Z,21.58
2023-05-16T16:11:56.743Z,22.78
2023-05-16T16:16:59.096Z,23.71
2023-05-16T16:22:00.904Z,26.67
2023-05-16T16:27:07.242Z,26.78
2023-05-16T16:32:11.270Z,26.90
2023-05-16T16:37:13.028Z,27.84
2023-05-16T16:42:17.260Z,24.77
2023-05-16T16:47:19.558Z,20.97
2023-05-16T16:52:21.336Z,19.09
2023-05-16T16:57:25.560Z,17.95
2023-05-16T17:02:32.631Z,17.39
2023-05-16T17:07:36.776Z,17.04
2023-05-16T17:12:46.945Z,16.75
2023-05-16T17:17:49.482Z,16.69
2023-05-16T17:22:53.643Z,16.81
2023-05-16T17:28:00.769Z,16.03
2023-05-16T17:33:02.588Z,15.77
2023-05-16T17:38:06.613Z,15.37
2023-05-16T17:43:10.873Z,14.98
2023-05-16T17:48:17.501Z,15.16
2023-05-16T17:53:22.329Z,14.87
2023-05-16T17:58:29.324Z,14.28
2023-05-16T18:03:33.599Z,14.31
2023-05-16T18:08:35.507Z,13.71
2023-05-16T18:13:42.415Z,13.25
2023-05-16T18:18:44.570Z,12.92
2023-05-16T18:23:47.086Z,13.18
2023-05-16T18:28:55.944Z,12.79
2023-05-16T18:34:03.673Z,12.56
2023-05-16T18:39:05.737Z,12.47
2023-05-16T18:44:09.816Z,12.52
2023-05-16T18:49:14.078Z,12.53
2023-05-16T18:54:15.862Z,12.43
2023-05-16T18:59:18.778Z,12.32
2023-05-16T19:04:20.676Z,12.61
2023-05-16T19:09:27.110Z,12.21
2023-05-16T19:14:33.875Z,12.13
2023-05-16T19:19:37.981Z,11.96
2023-05-16T19:24:40.138Z,11.86
2023-05-16T19:29:41.999Z,11.82
2023-05-16T19:34:44.001Z,11.83
2023-05-16T19:39:45.922Z,11.81
2023-05-16T19:44:49.756Z,11.82
2023-05-16T19:49:54.544Z,11.64
2023-05-16T19:54:56.474Z,11.57
2023-05-16T20:00:00.659Z,11.49
2023-05-16T20:05:08.181Z,11.47
2023-05-16T20:10:10.450Z,11.42
2023-05-16T20:15:12.807Z,11.34
2023-05-16T20:20:14.868Z,11.23
2023-05-16T20:25:16.612Z,11.18
2023-05-16T20:30:18.780Z,11.16
2023-05-16T20:35:20.723Z,11.13
2023-05-16T20:40:23.120Z,11.07
2023-05-16T20:45:27.226Z,11.00
2023-05-16T20:50:29.588Z,10.91
2023-05-16T20:55:33.151Z,10.89
2023-05-16T21:00:40.234Z,10.91
2023-05-16T21:05:44.232Z,10.86
2023-05-16T21:10:45.944Z,10.87
2023-05-16T21:15:49.337Z,10.85
2023-05-16T21:20:51.213Z,10.84
2023-05-16T21:25:52.919Z,10.77
2023-05-16T21:30:59.131Z,10.68
2023-05-16T21:36:03.892Z,10.64
2023-05-16T21:41:08.592Z,10.62
2023-05-16T21:46:12.533Z,10.66
2023-05-16T21:51:16.579Z,10.70
2023-05-16T21:56:18.798Z,10.73
2023-05-16T22:01:22.121Z,10.79
2023-05-16T22:06:24.709Z,10.76
2023-05-16T22:11:26.516Z,10.55
2023-05-16T22:16:30.631Z,10.41
2023-05-16T22:21:37.915Z,10.23
2023-05-16T22:26:40.557Z,10.09
2023-05-16T22:31:44.741Z,10.01
2023-05-16T22:36:51.736Z,10.07
2023-05-16T22:41:57.878Z,10.20
2023-05-16T22:47:02.325Z,10.24
2023-05-16T22:52:06.439Z,9.96
2023-05-16T22:57:13.607Z,9.51
2023-05-16T23:02:15.302Z,9.20
2023-05-16T23:07:21.720Z,8.92
2023-05-16T23:12:25.240Z,8.69
2023-05-16T23:17:27.009Z,8.51
2023-05-16T23:22:28.754Z,8.38
2023-05-16T23:27:30.725Z,8.26
2023-05-16T23:32:32.437Z,8.15
2023-05-16T23:37:38.707Z,8.17
2023-05-16T23:42:42.805Z,8.41
2023-05-16T23:47:46.932Z,8.57
2023-05-16T23:52:48.692Z,8.71
2023-05-16T23:57:50.382Z,8.57
